Maplewood, Maine
Current Conditions -  °F | °C
As of 4:54 PM on Thursday 27 Nov 2014 (Local Time) from KIZG Reporting Station
Overcast Overcast  
Wind Chill: 25°   Ceiling: 3200
Heat Index: 30°   Visibility: 10mi
Dew Point: 23°   Wind: 5mph
Humidity: 75%   Direction: 20°NNE
Pressure: 29.97"   Gusts: NA
Location:  43.7658°N, 70.9172°W
Report Text: KIZG 272154Z AUTO 02004KT 10SM OVC032 M01/M05 A2997 RMK AO2 SLP155 T10111050
Loading
Personal Weather Stations






























Interactive Weather Map New forecast layout! Learn more

10-Day Weather Forecast

Advertisements
Track Severe Weather on mobile